Time;durP1;ratioP1;P1;durP2;ratioP2;P2;SDS_P1;SDS_P2;PMS_P1;PMS_P2;Temp;Humidity;BMP_temperature;BMP_pressure;BME280_temperature;BME280_humidity;BME280_pressure;Samples;Min_cycle;Max_cycle;Signal;HPM_P1;HPM_P2
2022/07/28 00:04:14;;;;;;;3.65;1.70;;;18.90;75.10;;;;;;10634198;27;20033;-67
2022/07/28 00:09:15;;;;;;;3.55;1.70;;;18.90;75.20;;;;;;10633549;27;20034;-67
2022/07/28 00:14:16;;;;;;;2.72;1.60;;;18.90;75.30;;;;;;10623292;27;20044;-67
2022/07/28 00:19:16;;;;;;;4.07;1.83;;;18.90;75.30;;;;;;10635890;27;20022;-69
2022/07/28 00:24:17;;;;;;;2.60;1.67;;;18.90;75.40;;;;;;10615140;27;20389;-68
2022/07/28 00:29:18;;;;;;;3.65;1.83;;;18.80;75.40;;;;;;10635333;27;20042;-64
2022/07/28 00:34:19;;;;;;;3.90;1.60;;;18.80;75.50;;;;;;10628131;27;20033;-65
2022/07/28 00:39:19;;;;;;;5.53;1.88;;;18.80;75.50;;;;;;10625231;27;20035;-65
2022/07/28 00:44:20;;;;;;;3.40;1.60;;;18.80;75.60;;;;;;10629323;27;20078;-67
2022/07/28 00:49:21;;;;;;;2.53;1.45;;;18.70;75.60;;;;;;10626402;27;20031;-63
2022/07/28 00:54:22;;;;;;;5.90;1.73;;;18.70;75.70;;;;;;10634176;27;20031;-68
2022/07/28 00:59:24;;;;;;;3.80;1.38;;;18.70;75.80;;;;;;10629799;27;20027;-67
2022/07/28 01:04:25;;;;;;;4.28;1.60;;;18.70;75.90;;;;;;10625295;27;20027;-64
2022/07/28 01:10:01;;;;;;;2.15;1.20;;;18.70;75.90;;;;;;10618759;27;20034;-67
2022/07/28 01:15:33;;;;;;;3.80;1.42;;;18.60;76.00;;;;;;10625869;27;20037;-67
2022/07/28 01:20:38;;;;;;;3.33;1.33;;;18.60;76.10;;;;;;10618570;27;20018;-67
2022/07/28 01:25:59;;;;;;;2.78;1.38;;;18.60;76.10;;;;;;10627655;27;20023;-67
2022/07/28 01:31:04;;;;;;;2.30;1.25;;;18.60;76.10;;;;;;10615948;27;20420;-68
2022/07/28 01:36:09;;;;;;;3.67;1.65;;;18.50;76.10;;;;;;10634185;27;20019;-65
2022/07/28 01:41:15;;;;;;;2.95;1.35;;;18.50;76.20;;;;;;10622990;27;20031;-68
2022/07/28 01:46:17;;;;;;;1.83;1.25;;;18.50;76.20;;;;;;10622805;27;20059;-64
2022/07/28 01:51:19;;;;;;;1.58;1.08;;;18.50;76.30;;;;;;10630811;27;20046;-67
2022/07/28 01:56:21;;;;;;;2.25;1.10;;;18.40;76.20;;;;;;10624142;27;20069;-63
2022/07/28 02:01:24;;;;;;;3.45;1.20;;;18.40;76.20;;;;;;10633346;27;20031;-65
2022/07/28 02:06:26;;;;;;;1.98;1.33;;;18.70;76.40;;;;;;10622578;27;20320;-66
2022/07/28 02:11:41;;;;;;;2.60;0.95;;;18.40;76.30;;;;;;10623180;27;20081;-67
2022/07/28 02:16:45;;;;;;;2.35;1.08;;;18.40;76.30;;;;;;10625355;27;20080;-66
2022/07/28 02:21:48;;;;;;;1.30;0.90;;;18.30;76.20;;;;;;10625607;27;20123;-66
2022/07/28 02:27:00;;;;;;;2.00;1.00;;;18.30;76.30;;;;;;10618450;27;20535;-66
2022/07/28 02:32:08;;;;;;;1.67;0.90;;;18.30;76.30;;;;;;10633905;27;20047;-63
2022/07/28 02:37:09;;;;;;;;;;;18.30;76.40;;;;;;10627595;27;20099;-65
2022/07/28 02:42:16;;;;;;;4.60;0.90;;;18.30;76.40;;;;;;10617422;27;19964;-68
2022/07/28 02:47:23;;;;;;;1.65;0.90;;;18.20;76.30;;;;;;10630606;27;20059;-68
2022/07/28 02:52:25;;;;;;;2.85;1.33;;;18.20;76.40;;;;;;10628998;27;20057;-67
2022/07/28 02:57:28;;;;;;;1.85;1.00;;;18.20;76.40;;;;;;10627393;27;20023;-63
2022/07/28 03:02:32;;;;;;;2.38;1.20;;;18.20;76.50;;;;;;10640018;27;20031;-68
2022/07/28 03:07:35;;;;;;;3.15;1.05;;;18.10;76.40;;;;;;10638413;27;20445;-67
2022/07/28 03:12:35;;;;;;;2.65;0.95;;;18.10;76.40;;;;;;10628810;27;20070;-65
2022/07/28 03:17:36;;;;;;;2.20;1.02;;;18.00;76.40;;;;;;10634019;27;20117;-67
2022/07/28 03:22:38;;;;;;;2.28;1.15;;;18.00;76.40;;;;;;10627037;27;20031;-64
2022/07/28 03:27:42;;;;;;;2.28;1.15;;;18.00;76.50;;;;;;10636557;27;20388;-67
2022/07/28 03:33:02;;;;;;;1.02;0.90;;;18.00;76.40;;;;;;10633953;27;20124;-63
2022/07/28 03:38:21;;;;;;;2.88;0.98;;;17.90;76.30;;;;;;10622173;27;20045;-67
2022/07/28 03:43:25;;;;;;;1.20;0.90;;;17.90;76.30;;;;;;10641200;27;20083;-62
2022/07/28 03:48:29;;;;;;;3.88;1.15;;;17.90;76.40;;;;;;10634289;27;20123;-66
2022/07/28 03:53:30;;;;;;;3.25;1.45;;;17.90;76.40;;;;;;10619783;27;20034;-66
2022/07/28 03:58:31;;;;;;;2.38;0.90;;;17.90;76.50;;;;;;10642379;27;20405;-66
2022/07/28 04:03:32;;;;;;;1.75;0.90;;;17.90;76.50;;;;;;10628088;27;20031;-66
2022/07/28 04:08:32;;;;;;;2.00;0.85;;;17.90;76.50;;;;;;10626947;27;20039;-65
2022/07/28 04:13:35;;;;;;;2.90;1.17;;;17.80;76.50;;;;;;10625165;27;20031;-65
2022/07/28 04:18:36;;;;;;;2.25;0.85;;;17.80;76.50;;;;;;10634128;27;20420;-66
2022/07/28 04:23:37;;;;;;;0.98;0.85;;;17.80;76.80;;;;;;10611753;27;20133;-63
2022/07/28 04:28:38;;;;;;;1.73;1.00;;;17.70;76.40;;;;;;10548426;27;20519;-67
2022/07/28 04:33:39;;;;;;;1.13;0.80;;;17.70;76.40;;;;;;10553542;27;20042;-67
2022/07/28 04:38:41;;;;;;;3.13;0.80;;;17.30;76.20;;;;;;10560282;27;20459;-67
2022/07/28 04:43:42;;;;;;;2.38;0.80;;;17.70;76.40;;;;;;10557046;27;20054;-63
2022/07/28 04:48:44;;;;;;;1.15;0.93;;;17.70;76.40;;;;;;10554519;27;20115;-66
2022/07/28 04:53:46;;;;;;;1.20;0.95;;;18.00;76.60;;;;;;10548638;27;20484;-67
2022/07/28 04:58:47;;;;;;;1.13;0.80;;;17.70;76.50;;;;;;10555549;27;20031;-68
2022/07/28 05:03:47;;;;;;;2.42;0.80;;;17.70;76.50;;;;;;10559128;27;20504;-68
2022/07/28 05:08:49;;;;;;;1.75;0.77;;;17.70;76.40;;;;;;10556733;27;20802;-70
2022/07/28 05:13:50;;;;;;;1.48;1.00;;;17.70;76.40;;;;;;10561256;27;20034;-70
2022/07/28 05:18:50;;;;;;;2.20;1.00;;;17.70;76.40;;;;;;10554402;27;20037;-69
2022/07/28 05:23:51;;;;;;;1.85;1.00;;;17.70;76.40;;;;;;10555383;27;20484;-70
2022/07/28 05:28:52;;;;;;;1.90;0.70;;;17.80;76.40;;;;;;10559520;27;20538;-69
2022/07/28 05:33:53;;;;;;;1.55;0.88;;;17.70;76.30;;;;;;10551801;27;20501;-68
2022/07/28 05:38:54;;;;;;;1.60;0.95;;;17.70;76.30;;;;;;10550497;27;20360;-69
2022/07/28 05:43:54;;;;;;;2.65;0.82;;;17.80;76.30;;;;;;10551695;27;20046;-66
2022/07/28 05:48:55;;;;;;;3.40;0.80;;;17.80;76.30;;;;;;10561588;27;20046;-70
2022/07/28 05:53:55;;;;;;;2.65;0.90;;;17.80;76.40;;;;;;10546477;27;20905;-68
2022/07/28 05:58:56;;;;;;;1.33;1.23;;;17.80;76.40;;;;;;10553051;27;20339;-68
2022/07/28 06:03:57;;;;;;;2.42;1.10;;;17.80;76.40;;;;;;10539746;27;20562;-70
2022/07/28 06:08:57;;;;;;;1.80;0.80;;;17.80;76.40;;;;;;10549739;27;20093;-64
2022/07/28 06:14:00;;;;;;;1.00;0.63;;;17.80;76.50;;;;;;10547037;27;20027;-65
2022/07/28 06:19:00;;;;;;;1.10;0.90;;;17.80;76.50;;;;;;10559015;27;20127;-70
2022/07/28 06:24:01;;;;;;;3.15;1.02;;;17.80;76.50;;;;;;10553641;27;20027;-69
2022/07/28 06:29:03;;;;;;;1.60;0.60;;;17.80;76.50;;;;;;10569551;27;20372;-68
2022/07/28 06:34:04;;;;;;;1.83;0.88;;;17.80;76.60;;;;;;10564055;27;20617;-72
2022/07/28 06:39:05;;;;;;;2.17;0.90;;;17.80;76.60;;;;;;10570541;27;20099;-69
2022/07/28 06:44:07;;;;;;;1.58;0.70;;;17.90;76.70;;;;;;10570540;27;20234;-69
2022/07/28 06:49:08;;;;;;;5.30;1.00;;;17.90;76.80;;;;;;10561497;27;20297;-68
2022/07/28 06:54:11;;;;;;;1.77;1.08;;;17.90;76.80;;;;;;10569566;27;20035;-69
2022/07/28 06:59:14;;;;;;;1.10;0.70;;;17.90;76.80;;;;;;10573928;27;20092;-68
2022/07/28 07:04:14;;;;;;;3.00;1.02;;;17.90;76.80;;;;;;10568223;27;20561;-66
2022/07/28 07:09:15;;;;;;;2.10;0.73;;;17.90;76.80;;;;;;10569489;27;20542;-69
2022/07/28 07:14:16;;;;;;;3.15;1.10;;;17.90;76.80;;;;;;10568973;27;20761;-68
2022/07/28 07:19:17;;;;;;;2.05;0.70;;;17.90;76.90;;;;;;10564238;27;20033;-69
2022/07/28 07:24:18;;;;;;;1.83;0.90;;;18.00;77.50;;;;;;11258509;22;20630;-67
2022/07/28 07:29:21;;;;;;;5.20;1.00;;;18.00;76.90;;;;;;10512333;27;20047;-65
2022/07/28 07:34:22;;;;;;;1.50;0.80;;;18.00;77.20;;;;;;10503327;27;20062;-66
2022/07/28 07:39:23;;;;;;;2.97;0.80;;;17.90;77.40;;;;;;10514338;27;20039;-66
2022/07/28 07:44:24;;;;;;;3.90;0.95;;;17.90;77.70;;;;;;10503479;27;20351;-66
2022/07/28 07:49:24;;;;;;;1.58;0.70;;;17.90;77.80;;;;;;10506876;27;20844;-66
2022/07/28 07:54:25;;;;;;;3.00;0.85;;;18.00;77.70;;;;;;10508611;27;20368;-66
2022/07/28 07:59:26;;;;;;;3.17;0.80;;;18.00;77.70;;;;;;10503043;27;20035;-66
2022/07/28 08:04:27;;;;;;;2.28;0.85;;;18.10;77.60;;;;;;10507055;27;20024;-66
2022/07/28 08:09:27;;;;;;;2.75;0.88;;;18.10;77.60;;;;;;11968110;22;21851;-65
2022/07/28 08:14:29;;;;;;;3.38;0.95;;;18.20;77.50;;;;;;10509546;27;20150;-66
2022/07/28 08:19:30;;;;;;;1.60;0.82;;;18.20;77.40;;;;;;10516369;27;20720;-66
2022/07/28 08:24:31;;;;;;;1.05;0.75;;;18.20;77.40;;;;;;10499980;27;20019;-66
2022/07/28 08:29:32;;;;;;;1.98;0.80;;;18.20;77.30;;;;;;10502878;27;20038;-66
2022/07/28 08:34:33;;;;;;;1.35;0.63;;;18.30;77.20;;;;;;10500592;27;20150;-66
2022/07/28 08:39:35;;;;;;;2.95;0.77;;;18.40;77.30;;;;;;10507932;27;20042;-66
2022/07/28 08:44:46;;;;;;;1.00;0.55;;;18.40;77.30;;;;;;10510707;27;20023;-66
2022/07/28 08:49:49;;;;;;;3.03;0.95;;;18.50;77.60;;;;;;10495268;27;20039;-67
2022/07/28 08:54:51;;;;;;;1.02;0.55;;;18.50;77.20;;;;;;10497114;27;20539;-66
2022/07/28 08:59:53;;;;;;;1.67;0.70;;;18.60;77.10;;;;;;10517085;27;20099;-66
2022/07/28 09:04:54;;;;;;;1.42;0.70;;;18.60;77.00;;;;;;10510697;27;20522;-66
2022/07/28 09:09:55;;;;;;;2.78;0.80;;;18.80;76.90;;;;;;10514756;27;20815;-66
2022/07/28 09:20:09;;;;;;;2.50;0.75;;;18.70;76.70;;;;;;10979713;22;20411;-66
2022/07/28 09:25:17;;;;;;;1.10;0.68;;;18.80;76.60;;;;;;10474440;28;20635;-65
2022/07/28 09:30:33;;;;;;;2.00;0.50;;;18.80;76.40;;;;;;10472101;28;20083;-66
2022/07/28 09:35:51;;;;;;;1.88;0.75;;;18.90;76.40;;;;;;10475030;28;20028;-67
2022/07/28 09:41:05;;;;;;;1.00;0.57;;;18.90;76.30;;;;;;10471638;28;20438;-66
2022/07/28 09:46:07;;;;;;;1.27;0.88;;;19.00;76.20;;;;;;10473840;28;20032;-66
2022/07/28 09:51:11;;;;;;;1.80;0.82;;;19.00;76.10;;;;;;10475831;28;20037;-66
2022/07/28 09:56:13;;;;;;;1.35;0.80;;;19.00;76.10;;;;;;10476332;28;20666;-66
2022/07/28 10:01:15;;;;;;;0.95;0.63;;;19.00;76.10;;;;;;10483746;28;20057;-66
2022/07/28 10:06:25;;;;;;;1.50;0.77;;;19.10;76.10;;;;;;10485366;28;20291;-65
2022/07/28 10:11:27;;;;;;;0.93;0.60;;;19.10;76.00;;;;;;10483152;28;20051;-66
2022/07/28 10:16:52;;;;;;;1.20;0.52;;;19.20;76.50;;;;;;10483660;28;20571;-66
2022/07/28 10:21:54;;;;;;;2.38;0.73;;;19.20;75.90;;;;;;10469982;28;20061;-65
2022/07/28 10:26:56;;;;;;;3.63;0.70;;;19.30;75.80;;;;;;10479896;28;20051;-64
2022/07/28 10:32:06;;;;;;;1.30;0.75;;;19.30;75.70;;;;;;10478704;28;20028;-65
2022/07/28 10:37:09;;;;;;;1.02;0.57;;;19.40;75.70;;;;;;10481737;28;20039;-65
2022/07/28 10:42:11;;;;;;;1.63;0.70;;;19.30;75.60;;;;;;10481012;28;20332;-64
2022/07/28 10:47:12;;;;;;;3.08;0.75;;;19.40;75.50;;;;;;10485240;28;21330;-64
2022/07/28 10:52:16;;;;;;;2.50;0.80;;;19.00;74.60;;;;;;10477804;28;20074;-64
2022/07/28 10:57:20;;;;;;;1.25;0.70;;;19.60;74.00;;;;;;10479618;28;20624;-65
2022/07/28 11:02:51;;;;;;;3.25;0.70;;;19.60;73.50;;;;;;10469275;28;20020;-64
2022/07/28 11:07:52;;;;;;;1.55;0.63;;;19.50;71.70;;;;;;10466551;28;20040;-64
2022/07/28 11:12:57;;;;;;;2.67;0.70;;;20.00;72.90;;;;;;10479490;28;20778;-64
2022/07/28 11:18:08;;;;;;;3.13;0.73;;;19.50;72.30;;;;;;10475843;28;20047;-64
2022/07/28 11:23:45;;;;;;;1.83;0.70;;;19.40;72.20;;;;;;10476158;28;20853;-64
2022/07/28 11:29:05;;;;;;;1.52;0.65;;;19.60;71.10;;;;;;10466681;28;20105;-65
2022/07/28 11:34:07;;;;;;;3.00;0.70;;;19.80;71.50;;;;;;10478623;28;20071;-64
2022/07/28 11:39:25;;;;;;;2.03;0.80;;;19.90;71.20;;;;;;10474667;28;20468;-64
2022/07/28 11:44:27;;;;;;;2.35;0.85;;;20.00;70.60;;;;;;10473505;28;20028;-65
2022/07/28 11:49:28;;;;;;;3.28;0.50;;;20.00;71.00;;;;;;10481194;28;20124;-65
2022/07/28 11:54:30;;;;;;;1.23;0.60;;;20.10;70.50;;;;;;10467773;28;20286;-65
2022/07/28 11:59:44;;;;;;;2.78;0.77;;;20.20;70.20;;;;;;10474303;28;20147;-64
2022/07/28 12:04:52;;;;;;;1.35;0.60;;;20.20;70.00;;;;;;10470455;28;20031;-64
2022/07/28 12:09:53;;;;;;;;;;;20.20;70.20;;;;;;10474217;28;20043;-64
2022/07/28 12:14:55;;;;;;;4.45;0.75;;;20.60;68.00;;;;;;10474268;28;20373;-64
2022/07/28 12:20:00;;;;;;;1.05;0.73;;;20.80;69.10;;;;;;10478230;28;20484;-64
2022/07/28 12:25:01;;;;;;;1.52;0.70;;;20.90;68.80;;;;;;10476890;28;20593;-64
2022/07/28 12:30:03;;;;;;;2.58;0.65;;;21.00;68.10;;;;;;10478032;28;20039;-63
2022/07/28 12:35:04;;;;;;;1.65;0.70;;;21.00;67.90;;;;;;10479514;28;20039;-64
2022/07/28 12:40:07;;;;;;;1.27;0.77;;;20.80;68.10;;;;;;10475475;28;20561;-64
2022/07/28 12:45:09;;;;;;;1.88;0.82;;;20.80;68.50;;;;;;10475067;28;20596;-63
2022/07/28 12:50:14;;;;;;;2.47;0.80;;;20.80;68.30;;;;;;10467537;28;20921;-65
2022/07/28 12:55:31;;;;;;;2.05;0.70;;;20.60;68.40;;;;;;10462088;28;20027;-65
2022/07/28 13:00:34;;;;;;;3.75;0.93;;;20.50;67.70;;;;;;10461202;28;20145;-63
2022/07/28 13:10:58;;;;;;;1.85;0.60;;;20.70;68.10;;;;;;10472149;28;20462;-65
2022/07/28 13:16:20;;;;;;;0.90;0.65;;;21.00;67.10;;;;;;10464432;28;20486;-65
2022/07/28 13:21:42;;;;;;;2.83;0.70;;;21.20;66.30;;;;;;10388767;28;20384;-64
2022/07/28 13:26:43;;;;;;;1.25;0.75;;;21.50;66.50;;;;;;10379298;28;20440;-61
2022/07/28 13:31:43;;;;;;;2.17;0.85;;;21.60;66.60;;;;;;10391816;28;20756;-64
2022/07/28 13:36:44;;;;;;;0.90;0.50;;;21.50;65.40;;;;;;10380198;28;20039;-65
2022/07/28 13:41:45;;;;;;;1.52;0.60;;;21.50;66.10;;;;;;10393671;28;20639;-67
2022/07/28 13:46:46;;;;;;;0.85;0.55;;;21.50;66.70;;;;;;10379416;28;20036;-64
2022/07/28 13:51:47;;;;;;;2.00;0.70;;;21.50;67.30;;;;;;10383178;28;20049;-64
2022/07/28 13:56:48;;;;;;;2.42;0.60;;;21.50;67.40;;;;;;10382877;28;20029;-64
2022/07/28 14:01:49;;;;;;;2.20;0.80;;;21.40;67.70;;;;;;10387191;28;20573;-63
2022/07/28 14:06:50;;;;;;;1.45;0.80;;;21.50;68.20;;;;;;10394624;28;20316;-66
2022/07/28 14:11:51;;;;;;;2.03;0.60;;;21.50;68.60;;;;;;10392969;28;20607;-65
2022/07/28 14:16:52;;;;;;;2.35;0.80;;;21.50;68.80;;;;;;10395765;28;20097;-64
2022/07/28 14:21:54;;;;;;;0.93;0.60;;;21.60;68.90;;;;;;10470230;28;20047;-64
2022/07/28 14:26:55;;;;;;;1.08;0.52;;;21.70;68.90;;;;;;10462274;28;20027;-67
2022/07/28 14:31:58;;;;;;;1.58;0.70;;;21.80;68.80;;;;;;10461869;28;20032;-62
2022/07/28 14:36:58;;;;;;;1.42;0.60;;;21.90;68.80;;;;;;10453139;28;20514;-67
2022/07/28 14:41:59;;;;;;;1.27;0.63;;;21.50;68.80;;;;;;10467988;28;20595;-66
2022/07/28 14:47:00;;;;;;;0.85;0.50;;;21.90;69.50;;;;;;10464757;28;20473;-65
2022/07/28 14:52:01;;;;;;;1.00;0.60;;;21.90;69.40;;;;;;10472971;28;20986;-66
2022/07/28 14:57:02;;;;;;;1.95;0.90;;;22.10;69.20;;;;;;10475567;28;20197;-65
2022/07/28 15:02:03;;;;;;;0.60;0.50;;;22.20;69.20;;;;;;10466885;28;20042;-66
2022/07/28 15:07:04;;;;;;;0.57;0.57;;;22.30;69.10;;;;;;10457265;28;20020;-66
2022/07/28 15:12:05;;;;;;;1.23;0.70;;;22.40;69.20;;;;;;10459640;28;20526;-66
2022/07/28 15:17:06;;;;;;;4.63;0.80;;;22.50;69.00;;;;;;10470599;28;20095;-62
2022/07/28 15:22:06;;;;;;;2.50;0.73;;;22.50;68.90;;;;;;10468563;28;20146;-64
2022/07/28 15:27:10;;;;;;;2.47;0.65;;;22.40;68.80;;;;;;10472001;28;20486;-66
2022/07/28 15:32:12;;;;;;;1.98;0.70;;;22.40;67.80;;;;;;10454518;28;20434;-63
2022/07/28 15:37:13;;;;;;;3.15;0.95;;;22.30;67.10;;;;;;10478150;28;20687;-64
2022/07/28 15:42:14;;;;;;;3.22;0.70;;;22.10;66.70;;;;;;10465328;28;20040;-62
2022/07/28 15:47:15;;;;;;;2.08;0.80;;;22.10;66.90;;;;;;10463676;28;20024;-66
2022/07/28 15:52:16;;;;;;;1.50;0.80;;;22.10;66.90;;;;;;10461277;28;20040;-62
2022/07/28 15:57:18;;;;;;;1.73;0.70;;;22.10;66.70;;;;;;10480283;28;20031;-62
2022/07/28 16:02:19;;;;;;;2.45;0.90;;;21.90;66.80;;;;;;10474407;28;20297;-64
2022/07/28 16:07:23;;;;;;;2.28;0.85;;;21.60;67.20;;;;;;10471509;28;20020;-65
2022/07/28 16:12:24;;;;;;;3.35;1.27;;;21.40;67.30;;;;;;10468048;28;20214;-65
2022/07/28 16:17:26;;;;;;;1.50;0.85;;;21.30;67.50;;;;;;10463181;28;20042;-64
2022/07/28 16:22:27;;;;;;;1.48;0.68;;;21.30;67.50;;;;;;10470075;28;20055;-64
2022/07/28 16:27:28;;;;;;;0.98;0.80;;;21.30;67.70;;;;;;10461596;28;20036;-65
2022/07/28 16:32:28;;;;;;;2.67;1.00;;;21.20;67.60;;;;;;10474336;28;20232;-64
2022/07/28 16:37:29;;;;;;;2.97;1.00;;;21.20;67.90;;;;;;10481109;28;20168;-64
2022/07/28 16:42:30;;;;;;;2.53;0.80;;;21.10;67.80;;;;;;10492961;28;20031;-62
2022/07/28 16:47:31;;;;;;;4.47;0.70;;;21.00;68.40;;;;;;10480994;28;20543;-66
2022/07/28 16:52:31;;;;;;;1.77;0.75;;;21.00;67.80;;;;;;10479528;28;20098;-65
2022/07/28 16:57:32;;;;;;;2.10;0.80;;;21.00;67.60;;;;;;10472895;28;20508;-66
2022/07/28 17:02:34;;;;;;;1.67;1.00;;;21.00;67.50;;;;;;10468822;28;20152;-64
2022/07/28 17:07:40;;;;;;;6.25;1.65;;;21.00;67.60;;;;;;10444784;28;20028;-66
2022/07/28 17:12:41;;;;;;;3.35;0.90;;;21.00;67.90;;;;;;10467046;28;20110;-66
2022/07/28 17:17:42;;;;;;;1.58;1.00;;;20.90;68.20;;;;;;10470902;28;20486;-67
2022/07/28 17:22:43;;;;;;;2.03;1.63;;;20.80;68.50;;;;;;10470807;28;20066;-65
2022/07/28 17:27:44;;;;;;;1.27;0.80;;;20.70;68.70;;;;;;10465237;28;20027;-65
2022/07/28 17:32:44;;;;;;;1.40;0.73;;;21.00;68.90;;;;;;10463925;28;20567;-67
2022/07/28 17:37:45;;;;;;;2.10;1.05;;;20.70;68.70;;;;;;10449673;28;20150;-66
2022/07/28 17:42:46;;;;;;;1.75;1.10;;;20.60;68.80;;;;;;10469167;28;20454;-65
2022/07/28 17:47:47;;;;;;;2.78;1.13;;;20.40;68.90;;;;;;10476722;28;20024;-66
2022/07/28 17:52:48;;;;;;;1.60;0.88;;;20.40;69.50;;;;;;10476408;28;20063;-67
2022/07/28 17:57:48;;;;;;;2.97;1.13;;;20.30;69.70;;;;;;10468431;28;20036;-66
2022/07/28 18:02:49;;;;;;;2.60;1.05;;;20.20;69.90;;;;;;10468946;28;20476;-65
2022/07/28 18:07:50;;;;;;;1.15;0.80;;;20.20;70.10;;;;;;10469450;28;20032;-65
2022/07/28 18:12:51;;;;;;;5.32;1.08;;;20.10;70.30;;;;;;10468227;28;20548;-65
2022/07/28 18:17:53;;;;;;;1.33;0.85;;;20.00;70.50;;;;;;10471643;28;20044;-65
2022/07/28 18:22:56;;;;;;;1.98;1.10;;;20.00;70.80;;;;;;10464452;28;20271;-66
2022/07/28 18:27:57;;;;;;;3.28;0.93;;;19.90;71.10;;;;;;10470768;28;20226;-66
2022/07/28 18:32:58;;;;;;;5.32;0.90;;;19.90;71.30;;;;;;10475234;28;20542;-66
2022/07/28 18:37:59;;;;;;;1.25;0.90;;;19.20;71.20;;;;;;10473221;28;20122;-66
2022/07/28 18:43:00;;;;;;;0.95;0.77;;;19.70;71.90;;;;;;10473799;28;20027;-66
2022/07/28 18:48:03;;;;;;;1.63;0.80;;;19.60;72.20;;;;;;10470097;28;20496;-65
2022/07/28 18:53:03;;;;;;;2.35;0.80;;;19.50;72.50;;;;;;10474927;28;20740;-66
2022/07/28 18:58:04;;;;;;;3.08;0.88;;;19.40;72.80;;;;;;10470363;28;20149;-66
2022/07/28 19:03:05;;;;;;;3.17;1.90;;;19.30;73.10;;;;;;10476838;28;20654;-65
2022/07/28 19:08:06;;;;;;;3.67;1.00;;;19.20;73.50;;;;;;10477351;28;20351;-65
2022/07/28 19:13:06;;;;;;;3.58;1.10;;;19.10;73.60;;;;;;10474794;28;20489;-65
2022/07/28 19:18:08;;;;;;;2.20;1.00;;;19.10;74.00;;;;;;10467274;28;20082;-65
2022/07/28 19:23:08;;;;;;;2.22;1.50;;;19.00;74.20;;;;;;10464888;28;20027;-66
2022/07/28 19:28:10;;;;;;;5.75;1.10;;;18.90;74.40;;;;;;10461453;28;20034;-65
2022/07/28 19:33:11;;;;;;;3.47;1.20;;;18.80;74.60;;;;;;10468635;28;20051;-66
2022/07/28 19:38:12;;;;;;;2.08;1.23;;;18.80;74.80;;;;;;10480807;28;20024;-65
2022/07/28 19:43:13;;;;;;;4.78;1.20;;;18.70;75.00;;;;;;10453698;28;20466;-66
2022/07/28 19:48:13;;;;;;;4.07;1.77;;;18.60;75.10;;;;;;10462759;28;20353;-66
2022/07/28 19:53:14;;;;;;;5.75;2.05;;;18.50;75.40;;;;;;10464542;28;20039;-68
2022/07/28 19:58:15;;;;;;;3.67;1.80;;;18.40;75.60;;;;;;10476994;28;20027;-69
2022/07/28 20:03:16;;;;;;;4.07;1.70;;;18.30;76.20;;;;;;10467310;28;20113;-66
2022/07/28 20:08:17;;;;;;;5.60;2.40;;;18.20;76.40;;;;;;10529700;28;20032;-66
2022/07/28 20:13:18;;;;;;;5.05;1.58;;;18.20;76.40;;;;;;10548101;28;20044;-63
2022/07/28 20:18:18;;;;;;;3.10;1.65;;;18.30;76.40;;;;;;10542544;28;20051;-66
2022/07/28 20:23:19;;;;;;;5.45;1.83;;;18.60;75.90;;;;;;10540760;28;20047;-66
2022/07/28 20:28:20;;;;;;;2.35;1.42;;;18.90;75.30;;;;;;10545417;28;20020;-67
2022/07/28 20:33:23;;;;;;;3.75;1.60;;;19.10;74.90;;;;;;10545251;28;20147;-71
2022/07/28 20:38:24;;;;;;;1.77;1.25;;;19.30;74.70;;;;;;10539958;28;20794;-66
2022/07/28 20:43:25;;;;;;;3.40;1.58;;;19.40;74.40;;;;;;10545218;28;20035;-67
2022/07/28 20:48:25;;;;;;;4.30;1.40;;;19.50;74.40;;;;;;10540407;28;20115;-66
2022/07/28 20:53:26;;;;;;;3.17;1.83;;;19.60;74.30;;;;;;10540317;28;20101;-65
2022/07/28 20:58:27;;;;;;;8.63;2.47;;;19.60;74.20;;;;;;10542301;28;20482;-65
2022/07/28 21:03:28;;;;;;;3.30;1.30;;;19.70;74.10;;;;;;10541958;28;20091;-67
2022/07/28 21:08:28;;;;;;;2.83;1.42;;;19.70;74.00;;;;;;10546822;28;20089;-66
2022/07/28 21:13:29;;;;;;;3.17;1.58;;;19.80;74.10;;;;;;10542352;28;20409;-67
2022/07/28 21:18:30;;;;;;;3.63;1.65;;;19.80;74.00;;;;;;10523278;28;20668;-65
2022/07/28 21:23:30;;;;;;;4.10;1.35;;;19.80;74.00;;;;;;10550401;28;20023;-66
2022/07/28 21:33:51;;;;;;;2.80;1.20;;;19.80;74.00;;;;;;10537524;28;20217;-67
2022/07/28 21:38:52;;;;;;;1.77;1.00;;;19.80;74.00;;;;;;10543738;28;20023;-67
2022/07/28 21:43:55;;;;;;;2.38;1.10;;;19.80;74.00;;;;;;10540603;28;20020;-67
2022/07/28 21:48:57;;;;;;;1.88;1.08;;;19.80;74.00;;;;;;10541601;28;20411;-68
2022/07/28 21:53:58;;;;;;;2.25;0.95;;;19.80;74.10;;;;;;10552239;28;20161;-66
2022/07/28 21:59:00;;;;;;;1.45;1.10;;;19.80;74.10;;;;;;10551578;28;20028;-68
2022/07/28 22:04:02;;;;;;;1.85;1.10;;;19.80;74.20;;;;;;10560427;28;20044;-68
2022/07/28 22:09:03;;;;;;;1.27;1.17;;;19.80;74.20;;;;;;10563264;28;20489;-67
2022/07/28 22:14:03;;;;;;;3.72;1.23;;;19.80;74.20;;;;;;10553567;28;20049;-66
2022/07/28 22:19:04;;;;;;;1.60;0.90;;;19.80;74.20;;;;;;10549959;28;20040;-67
2022/07/28 22:24:05;;;;;;;1.35;0.95;;;19.80;74.20;;;;;;10551818;28;20346;-67
2022/07/28 22:29:05;;;;;;;1.73;0.95;;;19.70;74.20;;;;;;10562618;28;20028;-68
2022/07/28 22:34:06;;;;;;;1.95;1.08;;;19.70;74.20;;;;;;10550930;28;21417;-68
2022/07/28 22:39:07;;;;;;;2.42;1.00;;;19.70;74.20;;;;;;10549123;28;20024;-68
2022/07/28 22:44:08;;;;;;;1.92;1.10;;;19.70;74.30;;;;;;10555439;28;20788;-67
2022/07/28 22:49:08;;;;;;;1.15;0.80;;;19.70;74.20;;;;;;10578269;28;20057;-66
2022/07/28 22:54:09;;;;;;;1.40;0.80;;;19.70;74.20;;;;;;10564725;28;20063;-67
2022/07/28 22:59:10;;;;;;;0.70;0.60;;;19.70;74.30;;;;;;10549581;28;20233;-67
2022/07/28 23:04:11;;;;;;;1.75;0.80;;;19.60;74.20;;;;;;10557975;28;20024;-67
2022/07/28 23:09:12;;;;;;;1.23;0.80;;;19.60;74.20;;;;;;10549737;28;20115;-64
2022/07/28 23:14:12;;;;;;;1.83;0.75;;;19.60;74.30;;;;;;10545812;28;20436;-67
2022/07/28 23:19:13;;;;;;;1.27;0.80;;;19.60;74.30;;;;;;10549727;28;20040;-65
2022/07/28 23:24:14;;;;;;;2.75;0.80;;;19.60;74.30;;;;;;10554730;28;20023;-67
2022/07/28 23:29:15;;;;;;;1.60;0.70;;;19.60;74.40;;;;;;10528677;28;20028;-65
2022/07/28 23:34:15;;;;;;;1.65;0.90;;;19.50;74.30;;;;;;10547364;28;20036;-66
2022/07/28 23:39:16;;;;;;;0.85;0.75;;;19.60;75.10;;;;;;10561007;28;20036;-68
2022/07/28 23:44:17;;;;;;;0.90;0.90;;;19.50;74.40;;;;;;10544246;28;20028;-68
2022/07/28 23:49:18;;;;;;;0.88;0.80;;;19.50;74.40;;;;;;10547786;28;20020;-67
2022/07/28 23:54:18;;;;;;;1.73;0.63;;;19.50;74.40;;;;;;10541508;28;20478;-67
2022/07/28 23:59:19;;;;;;;0.70;0.70;;;19.50;74.40;;;;;;10547313;28;20111;-64
